createdAt,value
2023-04-01T00:01:37.078Z,98411.03
2023-04-01T00:04:04.813Z,98418.53
2023-04-01T00:06:32.225Z,98416.16
2023-04-01T00:08:59.578Z,98419.50
2023-04-01T00:11:28.326Z,98416.84
2023-04-01T00:13:56.044Z,98417.34
2023-04-01T00:16:23.425Z,98411.09
2023-04-01T00:18:51.586Z,98419.94
2023-04-01T00:21:19.167Z,98412.59
2023-04-01T00:23:46.624Z,98419.69
2023-04-01T00:26:15.285Z,98412.06
2023-04-01T00:28:43.228Z,98416.41
2023-04-01T00:31:11.318Z,98411.00
2023-04-01T00:33:39.795Z,98403.06
2023-04-01T00:36:15.047Z,98400.78
2023-04-01T00:38:43.475Z,98405.66
2023-04-01T00:41:15.828Z,98405.16
2023-04-01T00:43:44.587Z,98397.38
2023-04-01T00:46:12.098Z,98404.50
2023-04-01T00:48:43.299Z,98405.25
2023-04-01T00:51:15.466Z,98407.59
2023-04-01T00:53:44.378Z,98404.22
2023-04-01T00:56:16.906Z,98401.84
2023-04-01T00:58:47.435Z,98401.53
2023-04-01T01:01:15.401Z,98398.44
2023-04-01T01:03:42.796Z,98398.88
2023-04-01T01:06:27.507Z,98400.00
2023-04-01T01:09:22.405Z,98400.81
2023-04-01T01:12:01.848Z,98408.94
2023-04-01T01:14:51.052Z,98402.75
2023-04-01T01:17:34.768Z,98402.25
2023-04-01T01:20:51.092Z,98398.63
2023-04-01T01:23:39.878Z,98391.34
2023-04-01T01:26:13.456Z,98394.25
2023-04-01T01:29:06.000Z,98389.59
2023-04-01T01:31:42.753Z,98395.78
2023-04-01T01:34:16.503Z,98397.09
2023-04-01T01:36:46.077Z,98395.16
2023-04-01T01:39:13.460Z,98385.63
2023-04-01T01:41:40.933Z,98388.88
2023-04-01T01:44:09.254Z,98381.44
2023-04-01T01:46:36.722Z,98388.06
2023-04-01T01:49:04.134Z,98387.00
2023-04-01T01:51:31.772Z,98394.03
2023-04-01T01:53:59.229Z,98391.47
2023-04-01T01:56:28.166Z,98389.94
2023-04-01T01:59:01.765Z,98387.25
2023-04-01T02:01:30.426Z,98382.84
2023-04-01T02:03:58.886Z,98382.19
2023-04-01T02:06:28.770Z,98388.31
2023-04-01T02:09:02.165Z,98385.47
2023-04-01T02:11:39.486Z,98376.50
2023-04-01T02:14:10.447Z,98374.62
2023-04-01T02:17:01.332Z,98377.41
2023-04-01T02:19:32.580Z,98369.50
2023-04-01T02:22:02.046Z,98371.88
2023-04-01T02:24:30.167Z,98365.28
2023-04-01T02:26:57.493Z,98361.31
2023-04-01T02:29:26.416Z,98361.78
2023-04-01T02:31:53.982Z,98361.50
2023-04-01T02:34:22.535Z,98356.69
2023-04-01T02:36:50.391Z,98358.72
2023-04-01T02:39:17.859Z,98349.50
2023-04-01T02:41:46.088Z,98362.41
2023-04-01T02:44:14.201Z,98366.78
2023-04-01T02:46:41.852Z,98364.34
2023-04-01T02:49:09.540Z,98364.63
2023-04-01T02:51:36.949Z,98368.34
2023-04-01T02:54:04.485Z,98374.78
2023-04-01T02:56:32.182Z,98370.09
2023-04-01T02:58:59.561Z,98369.13
2023-04-01T03:01:27.025Z,98367.00
2023-04-01T03:03:54.714Z,98366.66
2023-04-01T03:06:22.057Z,98373.59
2023-04-01T03:08:49.491Z,98373.28
2023-04-01T03:11:17.263Z,98369.66
2023-04-01T03:13:44.647Z,98357.13
2023-04-01T03:16:12.131Z,98362.75
2023-04-01T03:18:39.720Z,98371.66
2023-04-01T03:21:20.509Z,98367.00
2023-04-01T03:23:48.152Z,98379.19
2023-04-01T03:26:15.728Z,98374.28
2023-04-01T03:28:43.799Z,98383.00
2023-04-01T03:31:11.578Z,98379.59
2023-04-01T03:33:39.329Z,98379.44
2023-04-01T03:36:07.452Z,98390.66
2023-04-01T03:38:35.807Z,98384.16
2023-04-01T03:41:03.209Z,98391.59
2023-04-01T03:43:30.856Z,98385.22
2023-04-01T03:45:59.062Z,98387.81
2023-04-01T03:48:26.812Z,98394.31
2023-04-01T03:50:54.509Z,98399.53
2023-04-01T03:53:22.212Z,98400.06
2023-04-01T03:55:49.797Z,98402.41
2023-04-01T03:58:17.155Z,98396.62
2023-04-01T04:00:44.858Z,98398.94
2023-04-01T04:03:12.730Z,98401.28
2023-04-01T04:05:47.453Z,98417.72
2023-04-01T04:08:15.784Z,98410.84
2023-04-01T04:10:43.158Z,98414.78
2023-04-01T04:13:10.661Z,98414.97
2023-04-01T04:15:39.599Z,98408.56
2023-04-01T04:18:07.781Z,98395.88
2023-04-01T04:20:35.993Z,98398.94
2023-04-01T04:23:03.795Z,98407.06
2023-04-01T04:25:33.062Z,98407.53
2023-04-01T04:28:01.391Z,98405.59
2023-04-01T04:30:29.416Z,98411.22
2023-04-01T04:32:56.880Z,98409.16
2023-04-01T04:35:24.386Z,98405.66
2023-04-01T04:37:52.131Z,98404.75
2023-04-01T04:40:19.689Z,98408.50
2023-04-01T04:42:47.080Z,98402.53
2023-04-01T04:45:14.956Z,98394.66
2023-04-01T04:47:42.769Z,98401.44
2023-04-01T04:50:10.881Z,98398.56
2023-04-01T04:52:40.664Z,98400.56
2023-04-01T04:55:08.437Z,98396.19
2023-04-01T04:57:35.871Z,98398.50
2023-04-01T05:00:03.965Z,98404.53
2023-04-01T05:02:33.224Z,98410.13
2023-04-01T05:05:01.044Z,98398.41
2023-04-01T05:07:29.190Z,98395.75
2023-04-01T05:09:56.601Z,98390.69
2023-04-01T05:12:23.937Z,98396.88
2023-04-01T05:14:52.590Z,98409.22
2023-04-01T05:17:19.967Z,98407.56
2023-04-01T05:19:47.493Z,98394.47
2023-04-01T05:22:15.668Z,98409.03
2023-04-01T05:24:43.294Z,98414.06
2023-04-01T05:27:10.665Z,98402.91
2023-04-01T05:29:38.676Z,98406.25
2023-04-01T05:32:06.403Z,98408.66
2023-04-01T05:34:33.982Z,98409.41
2023-04-01T05:37:01.613Z,98411.50
2023-04-01T05:39:29.427Z,98408.47
2023-04-01T05:41:56.929Z,98407.44
2023-04-01T05:44:24.558Z,98411.44
2023-04-01T05:46:54.806Z,98408.44
2023-04-01T05:49:22.381Z,98410.34
2023-04-01T05:51:50.595Z,98407.66
2023-04-01T05:54:18.473Z,98399.94
2023-04-01T05:56:47.657Z,98407.16
2023-04-01T05:59:16.405Z,98403.62
2023-04-01T06:01:43.797Z,98412.56
2023-04-01T06:04:14.714Z,98410.31
2023-04-01T06:06:42.079Z,98409.41
2023-04-01T06:09:15.575Z,98413.72
2023-04-01T06:12:06.690Z,98410.44
2023-04-01T06:14:43.548Z,98400.69
2023-04-01T06:17:41.924Z,98399.53
2023-04-01T06:20:21.555Z,98401.00
2023-04-01T06:22:58.642Z,98399.63
2023-04-01T06:25:41.340Z,98402.50
2023-04-01T06:28:37.044Z,98400.44
2023-04-01T06:31:15.913Z,98391.34
2023-04-01T06:34:07.888Z,98392.94
2023-04-01T06:36:57.078Z,98392.81
2023-04-01T06:39:46.597Z,98405.16
2023-04-01T06:42:22.899Z,98405.59
2023-04-01T06:45:04.273Z,98414.75
2023-04-01T06:47:55.481Z,98410.88
2023-04-01T06:50:39.141Z,98411.31
2023-04-01T06:53:17.573Z,98413.94
2023-04-01T06:55:57.295Z,98402.72
2023-04-01T06:58:25.741Z,98409.25
2023-04-01T07:01:02.190Z,98404.19
2023-04-01T07:03:37.432Z,98408.75
2023-04-01T07:06:07.229Z,98403.62
2023-04-01T07:08:38.890Z,98410.34
2023-04-01T07:11:07.552Z,98413.50
2023-04-01T07:13:55.739Z,98413.72
2023-04-01T07:16:36.922Z,98420.81
2023-04-01T07:19:05.536Z,98414.66
2023-04-01T07:21:37.487Z,98403.38
2023-04-01T07:24:07.930Z,98410.59
2023-04-01T07:26:36.106Z,98409.31
2023-04-01T07:29:07.127Z,98412.31
2023-04-01T07:31:40.907Z,98413.50
2023-04-01T07:34:23.902Z,98413.28
2023-04-01T07:37:02.459Z,98413.13
2023-04-01T07:39:39.120Z,98411.97
2023-04-01T07:42:09.976Z,98410.03
2023-04-01T07:45:00.404Z,98403.34
2023-04-01T07:48:08.766Z,98407.28
2023-04-01T07:51:09.918Z,98406.59
2023-04-01T07:54:02.293Z,98410.91
2023-04-01T07:56:50.614Z,98424.19
2023-04-01T07:59:24.043Z,98412.03
2023-04-01T08:02:23.253Z,98432.28
2023-04-01T08:05:28.528Z,98424.28
2023-04-01T08:08:09.770Z,98423.19
2023-04-01T08:11:23.068Z,98433.56
2023-04-01T08:13:59.985Z,98440.25
2023-04-01T08:16:35.920Z,98433.94
2023-04-01T08:19:40.990Z,98426.00
2023-04-01T08:22:22.719Z,98425.47
2023-04-01T08:24:50.872Z,98432.28
2023-04-01T08:27:35.377Z,98435.03
2023-04-01T08:30:04.226Z,98436.88
2023-04-01T08:32:38.077Z,98430.34
2023-04-01T08:35:10.564Z,98434.78
2023-04-01T08:37:40.273Z,98440.41
2023-04-01T08:40:35.406Z,98427.69
2023-04-01T08:43:41.152Z,98440.22
2023-04-01T08:46:11.485Z,98429.00
2023-04-01T08:49:06.427Z,98441.41
2023-04-01T08:52:28.122Z,98443.50
2023-04-01T08:55:17.526Z,98435.19
2023-04-01T08:58:10.052Z,98452.47
2023-04-01T09:01:26.408Z,98439.47
2023-04-01T09:04:24.168Z,98441.13
2023-04-01T09:07:10.880Z,98435.84
2023-04-01T09:10:05.231Z,98424.31
2023-04-01T09:12:55.954Z,98423.00
2023-04-01T09:15:44.090Z,98431.66
2023-04-01T09:18:33.988Z,98420.00
2023-04-01T09:21:23.354Z,98432.28
2023-04-01T09:24:28.462Z,98427.25
2023-04-01T09:27:19.043Z,98429.06
2023-04-01T09:29:57.833Z,98428.50
2023-04-01T09:32:59.434Z,98417.53
2023-04-01T09:35:37.389Z,98410.88
2023-04-01T09:38:23.970Z,98412.09
2023-04-01T09:41:08.446Z,98401.13
2023-04-01T09:44:02.663Z,98413.72
2023-04-01T09:46:52.797Z,98407.22
2023-04-01T09:49:39.039Z,98422.31
2023-04-01T09:52:26.402Z,98432.69
2023-04-01T09:55:43.110Z,98435.06
2023-04-01T09:58:47.941Z,98441.78
2023-04-01T10:01:55.732Z,98436.97
2023-04-01T10:04:42.434Z,98426.62
2023-04-01T10:07:28.432Z,98429.56
2023-04-01T10:09:55.821Z,98430.03
2023-04-01T10:12:38.283Z,98438.19
2023-04-01T10:15:29.334Z,98437.16
2023-04-01T10:18:24.556Z,98430.03
2023-04-01T10:20:55.119Z,98434.62
2023-04-01T10:23:47.039Z,98437.59
2023-04-01T10:26:28.457Z,98436.69
2023-04-01T10:29:12.140Z,98429.19
2023-04-01T10:32:08.706Z,98435.25
2023-04-01T10:35:23.744Z,98431.06
2023-04-01T10:37:54.065Z,98429.88
2023-04-01T10:40:29.516Z,98426.41
2023-04-01T10:43:15.109Z,98433.59
2023-04-01T10:45:47.751Z,98431.44
2023-04-01T10:48:41.624Z,98424.75
2023-04-01T10:51:32.455Z,98430.00
2023-04-01T10:54:33.941Z,98429.44
2023-04-01T10:57:18.069Z,98422.56
2023-04-01T11:00:24.525Z,98420.97
2023-04-01T11:03:04.206Z,98409.75
2023-04-01T11:05:52.946Z,98404.75
2023-04-01T11:08:39.237Z,98419.62
2023-04-01T11:11:29.336Z,98415.19
2023-04-01T11:14:30.659Z,98416.88
2023-04-01T11:17:16.396Z,98401.50
2023-04-01T11:20:03.578Z,98423.69
2023-04-01T11:22:31.103Z,98408.31
2023-04-01T11:25:10.096Z,98413.16
2023-04-01T11:27:52.287Z,98396.25
2023-04-01T11:30:42.077Z,98405.63
2023-04-01T11:33:20.535Z,98412.84
2023-04-01T11:36:07.195Z,98407.94
2023-04-01T11:38:48.354Z,98398.53
2023-04-01T11:41:42.663Z,98407.81
2023-04-01T11:44:18.381Z,98419.34
2023-04-01T11:47:01.129Z,98413.81
2023-04-01T11:50:02.413Z,98418.00
2023-04-01T11:52:42.835Z,98411.00
2023-04-01T11:55:13.255Z,98417.97
2023-04-01T11:57:45.181Z,98431.13
2023-04-01T12:00:27.364Z,98426.62
2023-04-01T12:03:04.125Z,98414.81
2023-04-01T12:05:48.557Z,98415.97
2023-04-01T12:08:42.275Z,98425.09
2023-04-01T12:11:23.209Z,98428.53
2023-04-01T12:14:20.583Z,98431.16
2023-04-01T12:16:52.769Z,98429.59
2023-04-01T12:19:42.562Z,98428.44
2023-04-01T12:22:21.417Z,98424.97
2023-04-01T12:24:52.986Z,98406.84
2023-04-01T12:27:20.456Z,98425.28
2023-04-01T12:29:55.722Z,98405.25
2023-04-01T12:32:37.306Z,98405.72
2023-04-01T12:35:07.623Z,98411.22
2023-04-01T12:38:02.857Z,98417.47
2023-04-01T12:40:32.809Z,98423.56
2023-04-01T12:43:18.903Z,98420.34
2023-04-01T12:46:07.222Z,98425.22
2023-04-01T12:49:04.315Z,98421.16
2023-04-01T12:52:11.388Z,98431.87
2023-04-01T12:55:04.338Z,98419.44
2023-04-01T12:57:46.952Z,98413.97
2023-04-01T13:00:24.834Z,98423.41
2023-04-01T13:03:11.171Z,98414.66
2023-04-01T13:06:00.669Z,98415.00
2023-04-01T13:08:52.675Z,98411.69
2023-04-01T13:11:47.585Z,98413.31
2023-04-01T13:14:36.849Z,98407.75
2023-04-01T13:17:19.810Z,98402.91
2023-04-01T13:20:22.134Z,98409.47
2023-04-01T13:23:16.558Z,98403.22
2023-04-01T13:25:51.036Z,98405.78
2023-04-01T13:28:27.362Z,98403.16
2023-04-01T13:31:16.598Z,98400.34
2023-04-01T13:33:46.881Z,98399.84
2023-04-01T13:36:38.957Z,98404.03
2023-04-01T13:39:14.281Z,98414.34
2023-04-01T13:42:02.862Z,98417.41
2023-04-01T13:44:46.444Z,98435.34
2023-04-01T13:47:44.869Z,98420.12
2023-04-01T13:50:32.382Z,98440.38
2023-04-01T13:53:41.627Z,98436.88
2023-04-01T13:56:16.378Z,98441.62
2023-04-01T13:58:53.726Z,98455.38
2023-04-01T14:01:28.039Z,98451.28
2023-04-01T14:03:58.705Z,98465.12
2023-04-01T14:07:08.133Z,98461.19
2023-04-01T14:09:57.541Z,98466.16
2023-04-01T14:12:31.489Z,98454.50
2023-04-01T14:15:22.490Z,98443.69
2023-04-01T14:18:05.047Z,98443.69
2023-04-01T14:21:10.085Z,98440.66
2023-04-01T14:23:48.388Z,98429.78
2023-04-01T14:26:25.253Z,98428.94
2023-04-01T14:29:10.720Z,98427.44
2023-04-01T14:31:57.880Z,98424.44
2023-04-01T14:34:56.472Z,98416.31
2023-04-01T14:38:06.185Z,98417.53
2023-04-01T14:40:54.961Z,98412.62
2023-04-01T14:43:38.770Z,98414.50
2023-04-01T14:46:18.317Z,98402.94
2023-04-01T14:48:57.394Z,98408.63
2023-04-01T14:51:33.515Z,98411.12
2023-04-01T14:54:13.294Z,98403.59
2023-04-01T14:56:45.524Z,98396.03
2023-04-01T14:59:22.220Z,98409.06
2023-04-01T15:01:49.537Z,98405.78
2023-04-01T15:04:35.593Z,98402.66
2023-04-01T15:07:20.246Z,98409.44
2023-04-01T15:10:30.535Z,98410.16
2023-04-01T15:13:28.285Z,98408.81
2023-04-01T15:16:28.645Z,98417.22
2023-04-01T15:19:12.953Z,98422.09
2023-04-01T15:21:55.752Z,98404.88
2023-04-01T15:24:27.798Z,98413.38
2023-04-01T15:27:04.989Z,98414.53
2023-04-01T15:29:54.202Z,98412.34
2023-04-01T15:32:26.874Z,98421.19
2023-04-01T15:35:12.359Z,98427.12
2023-04-01T15:37:54.972Z,98421.66
2023-04-01T15:40:30.559Z,98424.56
2023-04-01T15:43:39.208Z,98430.37
2023-04-01T15:46:13.809Z,98430.72
2023-04-01T15:48:53.684Z,98432.13
2023-04-01T15:51:33.189Z,98433.41
2023-04-01T15:54:30.073Z,98434.78
2023-04-01T15:57:06.235Z,98431.16
2023-04-01T15:59:42.741Z,98425.47
2023-04-01T16:02:21.471Z,98428.44
2023-04-01T16:05:09.229Z,98435.25
2023-04-01T16:07:58.550Z,98436.75
2023-04-01T16:10:35.429Z,98432.22
2023-04-01T16:13:11.860Z,98442.91
2023-04-01T16:16:17.062Z,98443.28
2023-04-01T16:18:56.266Z,98447.84
2023-04-01T16:21:51.142Z,98441.41
2023-04-01T16:24:35.445Z,98441.94
2023-04-01T16:27:09.406Z,98453.87
2023-04-01T16:29:46.040Z,98452.59
2023-04-01T16:32:24.666Z,98444.66
2023-04-01T16:35:03.041Z,98444.56
2023-04-01T16:37:40.839Z,98452.00
2023-04-01T16:40:35.876Z,98448.22
2023-04-01T16:43:27.945Z,98460.50
2023-04-01T16:46:14.746Z,98453.59
2023-04-01T16:49:02.138Z,98459.44
2023-04-01T16:51:51.856Z,98460.56
2023-04-01T16:54:22.368Z,98459.06
2023-04-01T16:57:09.851Z,98467.59
2023-04-01T16:59:41.174Z,98461.44
2023-04-01T17:02:08.431Z,98466.56
2023-04-01T17:04:43.575Z,98468.97
2023-04-01T17:07:29.549Z,98470.22
2023-04-01T17:10:19.526Z,98477.31
2023-04-01T17:13:08.780Z,98466.75
2023-04-01T17:15:56.249Z,98478.69
2023-04-01T17:18:35.165Z,98483.53
2023-04-01T17:21:06.942Z,98484.81
2023-04-01T17:23:39.067Z,98483.66
2023-04-01T17:26:29.974Z,98491.09
2023-04-01T17:29:24.541Z,98490.28
2023-04-01T17:31:59.020Z,98498.19
2023-04-01T17:34:53.420Z,98501.69
2023-04-01T17:38:03.625Z,98500.31
2023-04-01T17:40:54.808Z,98496.22
2023-04-01T17:43:47.042Z,98503.22
2023-04-01T17:46:45.814Z,98501.63
2023-04-01T17:49:32.056Z,98508.44
2023-04-01T17:52:07.146Z,98510.75
2023-04-01T17:54:40.720Z,98516.94
2023-04-01T17:57:32.206Z,98511.94
2023-04-01T18:00:08.725Z,98516.81
2023-04-01T18:03:01.078Z,98524.06
2023-04-01T18:05:53.197Z,98531.25
2023-04-01T18:08:46.724Z,98535.31
2023-04-01T18:11:27.085Z,98533.56
2023-04-01T18:14:17.889Z,98539.28
2023-04-01T18:16:52.260Z,98546.00
2023-04-01T18:19:25.595Z,98547.75
2023-04-01T18:22:26.915Z,98552.53
2023-04-01T18:25:02.172Z,98555.34
2023-04-01T18:27:39.517Z,98561.47
2023-04-01T18:30:24.842Z,98571.56
2023-04-01T18:32:59.155Z,98577.19
2023-04-01T18:35:46.258Z,98582.91
2023-04-01T18:38:15.442Z,98590.09
2023-04-01T18:40:44.589Z,98583.16
2023-04-01T18:43:28.630Z,98588.47
2023-04-01T18:45:59.389Z,98592.53
2023-04-01T18:48:51.211Z,98592.19
2023-04-01T18:51:21.721Z,98594.44
2023-04-01T18:53:53.803Z,98600.84
2023-04-01T18:56:33.526Z,98590.47
2023-04-01T18:59:07.782Z,98592.16
2023-04-01T19:01:40.579Z,98588.59
2023-04-01T19:04:38.273Z,98594.72
2023-04-01T19:07:40.598Z,98599.31
2023-04-01T19:10:27.761Z,98590.91
2023-04-01T19:13:23.757Z,98601.06
2023-04-01T19:16:07.183Z,98597.81
2023-04-01T19:18:41.996Z,98595.69
2023-04-01T19:21:21.324Z,98599.63
2023-04-01T19:24:16.762Z,98593.25
2023-04-01T19:26:49.949Z,98594.88
2023-04-01T19:29:29.528Z,98596.81
2023-04-01T19:32:02.494Z,98603.47
2023-04-01T19:34:39.087Z,98594.16
2023-04-01T19:37:21.901Z,98604.28
2023-04-01T19:39:56.155Z,98609.97
2023-04-01T19:42:55.566Z,98609.53
2023-04-01T19:45:47.424Z,98615.59
2023-04-01T19:48:43.206Z,98616.50
2023-04-01T19:51:12.213Z,98617.19
2023-04-01T19:54:21.904Z,98622.59
2023-04-01T19:57:01.145Z,98626.53
2023-04-01T20:00:01.256Z,98625.28
2023-04-01T20:02:53.809Z,98627.16
2023-04-01T20:05:31.251Z,98634.78
2023-04-01T20:08:23.203Z,98630.66
2023-04-01T20:11:17.024Z,98630.34
2023-04-01T20:14:14.491Z,98632.81
2023-04-01T20:16:51.083Z,98632.09
2023-04-01T20:19:36.134Z,98631.13
2023-04-01T20:22:05.811Z,98636.34
2023-04-01T20:24:43.295Z,98629.00
2023-04-01T20:27:13.745Z,98626.00
2023-04-01T20:29:56.228Z,98625.25
2023-04-01T20:32:51.069Z,98631.75
2023-04-01T20:35:38.764Z,98634.97
2023-04-01T20:38:44.431Z,98640.59
2023-04-01T20:41:25.010Z,98637.56
2023-04-01T20:44:06.196Z,98640.88
2023-04-01T20:47:02.718Z,98645.19
2023-04-01T20:50:06.186Z,98647.00
2023-04-01T20:52:37.717Z,98657.09
2023-04-01T20:55:23.929Z,98658.63
2023-04-01T20:58:00.990Z,98658.69
2023-04-01T21:00:39.615Z,98655.19
2023-04-01T21:03:25.920Z,98668.63
2023-04-01T21:06:27.711Z,98663.06
2023-04-01T21:09:23.436Z,98663.06
2023-04-01T21:11:53.920Z,98672.19
2023-04-01T21:14:45.814Z,98673.28
2023-04-01T21:17:18.762Z,98673.69
2023-04-01T21:20:05.280Z,98679.72
2023-04-01T21:23:09.769Z,98680.72
2023-04-01T21:25:48.826Z,98674.84
2023-04-01T21:28:38.138Z,98678.84
2023-04-01T21:31:07.280Z,98683.25
2023-04-01T21:34:06.387Z,98682.81
2023-04-01T21:36:44.298Z,98688.00
2023-04-01T21:39:42.949Z,98689.44
2023-04-01T21:42:25.206Z,98692.31
2023-04-01T21:45:14.177Z,98696.63
2023-04-01T21:47:47.442Z,98698.25
2023-04-01T21:50:24.013Z,98701.12
2023-04-01T21:53:09.425Z,98695.78
2023-04-01T21:56:01.242Z,98704.00
2023-04-01T21:58:28.543Z,98710.34
2023-04-01T22:01:26.527Z,98710.75
2023-04-01T22:04:00.235Z,98709.34
2023-04-01T22:06:42.030Z,98713.97
2023-04-01T22:09:22.503Z,98706.09
2023-04-01T22:11:55.215Z,98706.28
2023-04-01T22:14:47.080Z,98703.03
2023-04-01T22:17:14.703Z,98702.09
2023-04-01T22:20:22.520Z,98705.91
2023-04-01T22:22:58.530Z,98700.19
2023-04-01T22:25:27.272Z,98703.00
2023-04-01T22:27:59.298Z,98699.50
2023-04-01T22:31:05.419Z,98706.28
2023-04-01T22:33:47.535Z,98706.16
2023-04-01T22:36:25.017Z,98709.03
2023-04-01T22:39:11.623Z,98715.34
2023-04-01T22:41:55.112Z,98711.72
2023-04-01T22:44:33.578Z,98717.66
2023-04-01T22:47:06.347Z,98717.88
2023-04-01T22:49:35.711Z,98725.03
2023-04-01T22:52:06.483Z,98728.94
2023-04-01T22:54:38.058Z,98725.94
2023-04-01T22:57:30.323Z,98727.84
2023-04-01T23:00:20.048Z,98732.19
2023-04-01T23:03:01.417Z,98739.44
2023-04-01T23:05:28.803Z,98734.66
2023-04-01T23:08:32.292Z,98748.50
2023-04-01T23:11:01.044Z,98748.22
2023-04-01T23:13:42.876Z,98769.44
2023-04-01T23:16:10.456Z,98766.94
2023-04-01T23:19:18.561Z,98769.03
2023-04-01T23:21:47.568Z,98775.88
2023-04-01T23:24:37.067Z,98771.97
2023-04-01T23:27:05.988Z,98775.22
2023-04-01T23:29:36.972Z,98773.22
2023-04-01T23:32:04.396Z,98770.78
2023-04-01T23:34:32.339Z,98772.72
2023-04-01T23:37:17.129Z,98790.06
2023-04-01T23:39:46.206Z,98780.87
2023-04-01T23:42:32.922Z,98785.97
2023-04-01T23:45:05.271Z,98790.66
2023-04-01T23:47:38.474Z,98796.22
2023-04-01T23:50:12.899Z,98788.59
2023-04-01T23:52:42.856Z,98795.22
2023-04-01T23:55:19.868Z,98792.62
2023-04-01T23:58:06.080Z,98793.41
